Time;durP1;ratioP1;P1;durP2;ratioP2;P2;SDS_P1;SDS_P2;PMS_P1;PMS_P2;Temp;Humidity;BMP_temperature;BMP_pressure;BME280_temperature;BME280_humidity;BME280_pressure;Samples;Min_cycle;Max_cycle;Signal;HPM_P1;HPM_P2
2022/05/22 00:00:48;;;;;;;8.43;5.03;;;;;;;18.68;72.51;94723.50;5090425;27;20041;-69
2022/05/22 00:03:16;;;;;;;7.78;5.20;;;;;;;18.69;72.46;94725.06;5061928;27;20588;-69
2022/05/22 00:05:43;;;;;;;9.57;5.18;;;;;;;18.61;72.36;94721.19;5084122;27;20033;-68
2022/05/22 00:08:09;;;;;;;9.73;5.15;;;;;;;18.65;72.39;94739.88;5045802;27;20039;-68
2022/05/22 00:10:36;;;;;;;8.02;4.82;;;;;;;18.63;72.72;94742.03;5086474;27;20472;-69
2022/05/22 00:13:03;;;;;;;9.27;5.80;;;;;;;18.58;72.83;94729.69;5068853;27;20058;-68
2022/05/22 00:15:30;;;;;;;9.63;5.57;;;;;;;18.65;72.96;94734.59;5068703;27;20046;-69
2022/05/22 00:17:57;;;;;;;11.18;5.68;;;;;;;18.65;73.54;94729.34;5067267;27;20037;-70
2022/05/22 00:20:24;;;;;;;5.95;4.80;;;;;;;18.66;73.85;94729.06;5070705;27;20436;-70
2022/05/22 00:22:51;;;;;;;7.47;5.28;;;;;;;18.67;73.87;94728.00;5074074;27;20045;-69
2022/05/22 00:25:18;;;;;;;7.30;4.78;;;;;;;18.61;75.06;94728.34;5046389;27;20549;-69
2022/05/22 00:27:45;;;;;;;6.07;4.90;;;;;;;18.70;75.21;94726.63;5060737;27;20044;-69
2022/05/22 00:30:13;;;;;;;8.15;5.50;;;;;;;18.61;75.28;94707.25;5035917;27;20045;-69
2022/05/22 00:32:44;;;;;;;8.57;5.35;;;;;;;18.69;75.39;94717.94;5040127;27;20369;-70
2022/05/22 00:35:12;;;;;;;7.82;5.38;;;;;;;18.64;75.71;94714.59;5060397;27;20348;-69
2022/05/22 00:37:39;;;;;;;7.05;5.03;;;;;;;18.57;75.61;94706.25;5044947;27;20063;-70
2022/05/22 00:40:07;;;;;;;8.88;6.07;;;;;;;18.61;75.45;94723.06;5069303;27;20473;-70
2022/05/22 00:42:34;;;;;;;8.43;5.47;;;;;;;18.66;76.17;94709.81;5058655;27;20041;-70
2022/05/22 00:45:04;;;;;;;7.28;5.97;;;;;;;18.49;77.27;94711.09;5032928;27;20116;-69
2022/05/22 00:47:31;;;;;;;12.13;5.60;;;;;;;18.40;77.01;94696.97;5056007;27;20041;-69
2022/05/22 00:50:00;;;;;;;7.72;5.90;;;;;;;18.47;77.77;94718.47;5034938;27;20072;-69
2022/05/22 00:52:37;;;;;;;6.28;5.25;;;;;;;18.39;77.91;94711.19;5037257;27;20048;-69
2022/05/22 00:55:10;;;;;;;9.15;6.20;;;;;;;18.37;78.79;94713.34;5044780;27;20042;-71
2022/05/22 00:57:50;;;;;;;7.43;5.82;;;;;;;18.31;79.05;94709.19;5065494;27;20382;-71
2022/05/22 01:00:21;;;;;;;7.05;5.68;;;;;;;18.34;78.99;94708.63;5032710;27;20037;-71
2022/05/22 01:05:41;;;;;;;8.65;6.13;;;;;;;18.24;79.50;94693.72;5044130;27;20041;-71
2022/05/22 01:08:08;;;;;;;10.50;6.22;;;;;;;18.32;79.80;94705.50;5038298;27;20041;-71
2022/05/22 01:10:46;;;;;;;9.10;6.07;;;;;;;18.29;79.52;94700.78;5066935;27;20586;-71
2022/05/22 01:13:16;;;;;;;12.88;6.38;;;;;;;18.32;79.69;94706.25;5035472;27;20393;-71
2022/05/22 01:15:44;;;;;;;17.13;6.03;;;;;;;18.34;79.82;94701.50;5019802;27;20050;-69
2022/05/22 01:18:13;;;;;;;10.30;6.38;;;;;;;18.30;80.12;94702.34;5052224;27;20045;-68
2022/05/22 01:20:46;;;;;;;13.90;7.35;;;;;;;18.37;79.61;94705.44;5085893;27;20120;-68
2022/05/22 01:23:14;;;;;;;10.38;5.95;;;;;;;18.39;79.61;94695.38;5036298;27;20049;-69
2022/05/22 01:25:40;;;;;;;11.75;5.85;;;;;;;18.38;80.37;94698.31;5064594;27;20101;-70
2022/05/22 01:28:10;;;;;;;7.90;5.88;;;;;;;18.37;80.26;94692.25;5048228;27;20435;-70
2022/05/22 01:30:38;;;;;;;11.57;7.07;;;;;;;18.32;80.28;94681.75;5070809;27;20133;-70
2022/05/22 01:33:08;;;;;;;9.63;6.03;;;;;;;18.40;80.92;94689.06;5042839;27;20128;-70
2022/05/22 01:35:37;;;;;;;15.88;6.70;;;;;;;18.42;81.12;94694.81;5053309;27;20117;-70
2022/05/22 01:38:08;;;;;;;8.65;6.65;;;;;;;18.33;81.30;94685.97;5073146;27;20050;-70
2022/05/22 01:40:41;;;;;;;;;;;;;;;18.39;81.91;94698.03;5038567;27;20041;-70
2022/05/22 01:43:09;;;;;;;7.40;6.15;;;;;;;18.37;82.65;94697.53;5037643;27;20035;-70
2022/05/22 01:45:41;;;;;;;9.85;5.93;;;;;;;18.27;83.36;94681.81;5044336;27;20045;-70
2022/05/22 01:48:10;;;;;;;9.38;6.35;;;;;;;18.37;83.58;94692.25;5039032;27;20047;-70
2022/05/22 01:50:43;;;;;;;7.38;5.95;;;;;;;18.38;83.24;94699.06;5041509;27;20041;-70
2022/05/22 01:53:11;;;;;;;9.13;6.22;;;;;;;18.45;82.90;94694.25;5041560;27;20129;-70
2022/05/22 01:55:39;;;;;;;12.40;5.93;;;;;;;18.35;83.41;94678.56;5046384;27;20200;-71
2022/05/22 01:58:07;;;;;;;8.95;6.32;;;;;;;18.44;82.75;94697.97;5122298;27;20053;-71
2022/05/22 02:00:38;;;;;;;8.98;6.10;;;;;;;18.28;83.08;94688.69;5037378;27;20226;-71
2022/05/22 02:03:06;;;;;;;9.18;5.22;;;;;;;18.32;82.92;94694.94;5038803;27;20488;-72
2022/05/22 02:05:35;;;;;;;8.20;5.38;;;;;;;18.25;82.87;94683.97;5040606;27;20049;-71
2022/05/22 02:08:19;;;;;;;9.05;6.28;;;;;;;18.22;83.30;94687.16;5042024;27;20165;-71
2022/05/22 02:10:54;;;;;;;10.98;6.70;;;;;;;18.13;83.87;94693.06;5035475;27;20417;-71
2022/05/22 02:13:26;;;;;;;8.40;6.55;;;;;;;18.23;83.84;94704.56;5043116;27;20049;-71
2022/05/22 02:15:53;;;;;;;9.05;5.72;;;;;;;18.19;83.68;94695.66;5052124;27;20141;-71
2022/05/22 02:18:21;;;;;;;7.47;5.55;;;;;;;18.18;83.73;94707.25;5037577;27;20041;-71
2022/05/22 02:20:48;;;;;;;10.13;6.63;;;;;;;18.20;83.43;94702.47;5037480;27;20375;-71
2022/05/22 02:23:17;;;;;;;8.23;5.40;;;;;;;18.20;83.56;94700.59;5040481;27;20050;-71
2022/05/22 02:25:47;;;;;;;9.88;6.10;;;;;;;18.24;83.55;94704.28;5036957;27;20053;-71
2022/05/22 02:28:17;;;;;;;9.18;6.47;;;;;;;18.22;83.33;94710.88;5037118;27;20609;-71
2022/05/22 02:30:57;;;;;;;11.68;7.38;;;;;;;18.25;83.49;94712.97;5037369;27;20051;-71
2022/05/22 02:33:25;;;;;;;14.70;7.53;;;;;;;18.26;83.25;94717.19;5042252;27;20049;-71
2022/05/22 02:35:57;;;;;;;10.70;6.22;;;;;;;18.21;83.57;94704.06;5044768;27;20094;-71
2022/05/22 02:38:33;;;;;;;14.68;6.25;;;;;;;18.14;83.35;94702.53;5039347;27;20049;-71
2022/05/22 02:41:10;;;;;;;13.52;6.82;;;;;;;18.17;83.62;94713.56;5037332;27;20038;-71
2022/05/22 02:43:38;;;;;;;18.75;6.25;;;;;;;18.03;83.18;94708.97;5064571;27;20545;-71
2022/05/22 02:46:10;;;;;;;11.25;7.20;;;;;;;18.01;83.64;94705.84;5121041;27;20048;-71
2022/05/22 02:48:39;;;;;;;10.73;7.03;;;;;;;18.04;83.16;94709.75;5035254;27;20105;-71
2022/05/22 02:51:11;;;;;;;14.35;6.35;;;;;;;18.01;83.78;94713.75;5082595;27;20040;-71
2022/05/22 02:53:38;;;;;;;8.35;5.85;;;;;;;17.92;84.15;94712.81;5049738;27;20080;-71
2022/05/22 02:56:41;;;;;;;10.02;5.78;;;;;;;17.85;84.23;94713.13;5056115;27;20479;-71
2022/05/22 02:59:26;;;;;;;6.60;5.18;;;;;;;17.78;77.02;94707.38;5079581;27;20057;-71
2022/05/22 03:02:07;;;;;;;5.00;4.20;;;;;;;17.93;72.89;94719.63;5040331;27;20064;-71
2022/05/22 03:04:36;;;;;;;6.40;3.75;;;;;;;18.00;71.94;94727.97;5036472;27;20120;-71
2022/05/22 03:07:10;;;;;;;10.48;3.83;;;;;;;18.08;71.13;94716.84;5037748;27;20049;-71
2022/05/22 03:09:39;;;;;;;5.65;4.05;;;;;;;18.15;68.16;94725.19;5052081;27;20101;-71
2022/05/22 03:12:15;;;;;;;5.28;3.83;;;;;;;18.21;68.30;94730.41;5033904;27;20430;-71
2022/05/22 03:14:50;;;;;;;7.03;4.53;;;;;;;18.18;70.39;94723.06;5055427;27;20142;-71
2022/05/22 03:17:17;;;;;;;5.15;4.05;;;;;;;18.19;70.78;94727.28;5037452;27;20134;-72
2022/05/22 03:19:51;;;;;;;;;;;;;;;18.11;69.26;94726.81;5045340;27;20052;-71
2022/05/22 03:22:18;;;;;;;3.70;3.05;;;;;;;18.11;67.56;94721.56;5046629;27;19930;-71
2022/05/22 03:24:46;;;;;;;5.45;4.13;;;;;;;18.13;70.05;94729.97;5013883;28;20054;-71
2022/05/22 03:27:15;;;;;;;4.20;3.58;;;;;;;18.04;68.13;94715.84;5031456;27;20435;-71
2022/05/22 03:29:45;;;;;;;4.38;3.00;;;;;;;18.10;67.47;94725.25;5064307;27;20456;-71
2022/05/22 03:32:12;;;;;;;5.35;3.65;;;;;;;18.15;67.56;94727.81;5046005;27;20099;-71
2022/05/22 03:34:41;;;;;;;4.47;3.50;;;;;;;18.19;67.25;94728.06;5039651;27;20400;-71
2022/05/22 03:37:09;;;;;;;3.78;3.30;;;;;;;18.17;65.48;94719.66;5034514;27;20042;-71
2022/05/22 03:39:37;;;;;;;4.82;2.67;;;;;;;18.26;62.06;94738.25;5042942;27;20046;-71
2022/05/22 03:42:05;;;;;;;3.20;2.28;;;;;;;18.27;56.13;94732.69;5018771;28;20046;-71
2022/05/22 03:44:36;;;;;;;2.83;2.13;;;;;;;18.48;52.13;94735.88;5044932;28;20052;-71
2022/05/22 03:47:03;;;;;;;2.95;1.77;;;;;;;18.71;48.20;94749.31;5047163;27;20087;-71
2022/05/22 03:49:42;;;;;;;1.70;1.42;;;;;;;18.89;44.73;94748.56;5031137;27;20045;-70
2022/05/22 03:52:09;;;;;;;1.63;1.13;;;;;;;18.98;43.74;94738.16;5053770;27;20043;-72
2022/05/22 03:54:35;;;;;;;2.08;1.33;;;;;;;19.22;41.14;94748.63;5043405;27;20061;-71
2022/05/22 03:57:03;;;;;;;1.85;1.02;;;;;;;19.50;39.70;94748.75;5051064;28;20388;-71
2022/05/22 03:59:37;;;;;;;1.23;0.80;;;;;;;19.75;37.13;94744.13;5054709;28;20555;-71
2022/05/22 04:02:04;;;;;;;3.47;1.08;;;;;;;19.89;37.06;94744.16;5035470;27;20065;-71
2022/05/22 04:04:31;;;;;;;1.90;0.82;;;;;;;19.99;37.16;94742.09;5034555;28;20041;-74
2022/05/22 04:07:04;;;;;;;3.53;0.93;;;;;;;20.12;37.01;94753.75;5037289;28;20617;-74
2022/05/22 04:09:32;;;;;;;1.73;0.98;;;;;;;20.18;36.94;94752.59;5041950;28;20049;-74
2022/05/22 04:12:09;;;;;;;1.80;0.75;;;;;;;20.18;36.08;94746.53;5025577;28;20106;-73
2022/05/22 04:14:38;;;;;;;1.73;1.25;;;;;;;20.26;36.68;94759.06;5030787;28;20045;-72
2022/05/22 04:17:07;;;;;;;1.13;0.80;;;;;;;20.21;37.12;94751.22;5021638;28;20479;-72
2022/05/22 04:19:36;;;;;;;2.35;1.13;;;;;;;20.25;37.55;94757.50;5020431;28;20760;-72
2022/05/22 04:22:05;;;;;;;1.50;0.88;;;;;;;20.31;38.95;94761.63;5005575;28;20068;-73
2022/05/22 04:27:22;;;;;;;2.10;1.48;;;;;;;20.20;39.46;94757.59;5140047;27;20079;-72
2022/05/22 04:29:50;;;;;;;3.55;1.42;;;;;;;20.26;40.24;94761.72;5036434;27;20443;-72
2022/05/22 04:32:19;;;;;;;3.05;1.60;;;;;;;20.16;42.27;94764.53;5042375;27;20496;-75
2022/05/22 04:34:56;;;;;;;2.50;1.83;;;;;;;20.04;43.76;94747.31;5034556;27;20187;-74
2022/05/22 04:37:24;;;;;;;5.05;1.90;;;;;;;20.04;44.81;94755.22;5039131;27;20426;-72
2022/05/22 04:39:58;;;;;;;4.53;2.28;;;;;;;20.07;45.39;94764.44;5035486;27;20056;-72
2022/05/22 04:42:33;;;;;;;3.65;2.00;;;;;;;20.07;46.36;94767.06;5025424;27;20041;-72
2022/05/22 04:45:02;;;;;;;2.10;1.77;;;;;;;19.99;47.93;94770.41;5042271;27;20563;-72
2022/05/22 04:47:29;;;;;;;2.72;1.67;;;;;;;19.90;49.06;94772.13;5075838;27;20054;-72
2022/05/22 04:50:16;;;;;;;3.10;1.70;;;;;;;19.76;50.32;94772.13;5060999;27;20430;-72
2022/05/22 04:53:20;;;;;;;3.75;2.13;;;;;;;19.64;50.16;94762.78;5082810;27;20124;-72
2022/05/22 04:56:05;;;;;;;2.90;1.80;;;;;;;19.58;50.20;94777.13;5036657;27;20558;-72
2022/05/22 04:58:50;;;;;;;4.05;2.22;;;;;;;19.52;51.08;94778.28;5078564;27;20110;-72
2022/05/22 05:01:19;;;;;;;4.90;2.85;;;;;;;19.34;51.72;94771.16;5029406;27;20098;-72
2022/05/22 05:04:18;;;;;;;5.18;1.92;;;;;;;19.42;52.13;94773.16;5050808;27;20052;-72
2022/05/22 05:06:52;;;;;;;2.92;2.03;;;;;;;19.27;52.66;94761.75;5040382;27;20041;-72
2022/05/22 05:09:53;;;;;;;4.50;2.55;;;;;;;19.30;52.62;94755.09;5043376;27;20056;-72
2022/05/22 05:12:39;;;;;;;7.28;2.65;;;;;;;19.45;54.05;94775.22;5037215;27;20127;-72
2022/05/22 05:15:19;;;;;;;4.78;2.55;;;;;;;19.37;53.84;94765.31;5035836;27;20065;-72
2022/05/22 05:17:53;;;;;;;5.40;2.25;;;;;;;19.47;54.30;94781.00;5037518;27;20045;-72
2022/05/22 05:20:23;;;;;;;4.22;2.42;;;;;;;19.36;54.80;94758.47;5036808;27;20045;-72
2022/05/22 05:22:54;;;;;;;3.58;2.10;;;;;;;19.15;53.95;94753.47;5039383;27;20095;-72
2022/05/22 05:25:33;;;;;;;3.72;2.63;;;;;;;19.14;55.83;94743.19;5037863;27;20584;-72
2022/05/22 05:28:00;;;;;;;3.67;2.08;;;;;;;19.28;55.88;94781.81;5038055;27;20096;-72
2022/05/22 05:30:28;;;;;;;3.22;2.45;;;;;;;19.24;56.37;94788.72;5036741;27;20128;-72
2022/05/22 05:32:56;;;;;;;3.00;2.38;;;;;;;19.07;56.94;94783.19;5026319;27;20049;-72
2022/05/22 05:35:43;;;;;;;2.38;2.10;;;;;;;18.98;57.37;94774.31;5039920;27;20048;-72
2022/05/22 05:38:18;;;;;;;10.75;2.45;;;;;;;19.10;57.75;94782.59;5036075;27;20049;-72
2022/05/22 05:41:07;;;;;;;3.83;2.90;;;;;;;19.13;57.86;94787.31;5041518;27;20039;-72
2022/05/22 05:43:37;;;;;;;4.28;3.17;;;;;;;19.14;58.72;94788.88;5046954;27;20815;-72
2022/05/22 05:46:04;;;;;;;4.30;3.05;;;;;;;19.10;58.68;94793.13;5037076;27;20359;-72
2022/05/22 05:48:42;;;;;;;6.20;2.60;;;;;;;19.03;60.21;94782.16;5038491;27;20056;-72
2022/05/22 05:51:14;;;;;;;3.40;2.78;;;;;;;19.09;60.98;94786.31;5037827;27;20049;-74
2022/05/22 05:53:48;;;;;;;3.45;2.67;;;;;;;19.13;60.65;94791.81;5039951;27;20041;-72
2022/05/22 05:56:37;;;;;;;3.22;2.33;;;;;;;19.15;59.71;94784.38;5039563;27;20073;-72
2022/05/22 05:59:28;;;;;;;7.65;2.60;;;;;;;19.18;58.73;94786.47;5024848;27;20049;-72
2022/05/22 06:02:11;;;;;;;3.85;2.15;;;;;;;19.25;59.08;94794.81;5039208;27;20546;-72
2022/05/22 06:04:39;;;;;;;3.72;2.33;;;;;;;19.12;59.15;94788.34;5022314;27;20051;-72
2022/05/22 06:07:06;;;;;;;4.15;2.35;;;;;;;19.26;60.14;94797.13;5039489;27;20394;-72
2022/05/22 06:09:33;;;;;;;3.72;2.30;;;;;;;19.24;58.86;94793.22;5042007;27;20048;-72
2022/05/22 06:12:04;;;;;;;3.25;2.08;;;;;;;19.33;58.89;94796.00;5063172;27;20414;-72
2022/05/22 06:14:35;;;;;;;5.10;1.98;;;;;;;19.48;59.60;94793.13;5034771;27;20551;-73
2022/05/22 06:17:03;;;;;;;3.55;2.85;;;;;;;19.65;59.66;94800.53;5032225;27;20045;-72
2022/05/22 06:19:57;;;;;;;3.92;2.55;;;;;;;19.84;57.16;94811.06;5052614;27;20052;-72
2022/05/22 06:22:36;;;;;;;2.50;2.05;;;;;;;19.94;55.93;94799.56;5050691;27;20050;-71
2022/05/22 06:25:08;;;;;;;3.15;2.13;;;;;;;20.02;54.08;94797.03;5131073;27;20106;-72
2022/05/22 06:27:35;;;;;;;4.10;2.50;;;;;;;20.03;53.16;94798.59;5052863;27;20298;-72
2022/05/22 06:30:34;;;;;;;3.67;1.95;;;;;;;19.91;55.54;94792.22;5020514;27;20053;-72
2022/05/22 06:33:16;;;;;;;2.67;1.83;;;;;;;19.96;56.87;94807.97;5047243;27;20356;-72
2022/05/22 06:36:10;;;;;;;2.53;2.03;;;;;;;19.92;57.26;94799.84;5044688;27;20047;-73
2022/05/22 06:42:12;;;;;;;2.83;1.25;;;;;;;19.92;55.23;94797.22;5041148;27;20056;-73
2022/05/22 06:45:03;;;;;;;2.28;1.85;;;;;;;19.97;53.18;94799.78;5033987;27;20053;-73
2022/05/22 06:47:56;;;;;;;2.28;1.85;;;;;;;20.14;52.72;94798.41;5024424;27;20054;-73
2022/05/22 06:50:25;;;;;;;5.03;1.50;;;;;;;20.16;53.46;94802.34;5075168;27;20043;-75
2022/05/22 06:53:04;;;;;;;5.15;2.60;;;;;;;20.04;53.37;94784.31;5031183;27;20788;-75
2022/05/22 06:55:50;;;;;;;2.88;1.65;;;;;;;20.18;52.58;94799.41;5079798;27;20072;-75
2022/05/22 06:58:38;;;;;;;2.65;1.63;;;;;;;20.30;51.63;94796.28;5036550;27;20049;-75
2022/05/22 07:01:24;;;;;;;2.47;1.73;;;;;;;20.40;50.64;94794.25;5059986;27;20084;-76
2022/05/22 07:04:00;;;;;;;3.03;1.83;;;;;;;20.49;50.07;94789.06;5057924;27;20049;-78
2022/05/22 07:06:42;;;;;;;2.83;1.85;;;;;;;20.58;50.11;94781.19;5026042;27;20094;-76
2022/05/22 07:09:18;;;;;;;1.50;1.15;;;;;;;20.65;50.24;94781.59;5052360;27;20085;-75
2022/05/22 07:12:01;;;;;;;6.55;1.70;;;;;;;20.68;50.19;94781.03;5038209;27;20048;-73
2022/05/22 07:14:28;;;;;;;2.22;1.20;;;;;;;20.63;47.75;94783.75;5045924;27;20041;-72
2022/05/22 07:17:09;;;;;;;3.35;1.67;;;;;;;20.61;48.42;94785.94;5019320;27;20049;-72
2022/05/22 07:19:56;;;;;;;3.90;1.52;;;;;;;20.50;48.22;94763.38;5036508;27;20077;-72
2022/05/22 07:22:55;;;;;;;2.30;1.52;;;;;;;20.76;48.54;94782.97;5036649;27;20497;-76
2022/05/22 07:25:26;;;;;;;3.30;1.42;;;;;;;20.81;47.37;94769.66;5022519;27;20344;-76
2022/05/22 07:28:08;;;;;;;7.20;1.70;;;;;;;21.14;46.29;94792.50;5036822;27;20144;-77
2022/05/22 07:30:53;;;;;;;6.13;1.00;;;;;;;21.25;45.96;94777.16;5049668;27;20049;-77
2022/05/22 07:33:50;;;;;;;4.85;2.20;;;;;;;21.41;45.27;94791.66;5017462;27;20077;-77
2022/05/22 07:36:53;;;;;;;3.00;1.80;;;;;;;21.43;45.46;94786.84;5038405;27;20052;-76
2022/05/22 07:39:39;;;;;;;4.53;1.83;;;;;;;21.50;45.59;94781.94;5042861;27;20060;-77
2022/05/22 07:42:30;;;;;;;1.92;1.17;;;;;;;21.44;47.06;94780.44;5037772;27;20053;-75
2022/05/22 07:45:36;;;;;;;3.45;1.42;;;;;;;21.65;46.82;94790.59;5077955;28;20047;-74
2022/05/22 07:48:23;;;;;;;3.30;1.65;;;;;;;21.69;44.20;94765.81;5077767;28;20048;-74
2022/05/22 07:51:07;;;;;;;5.17;2.33;;;;;;;21.91;44.48;94783.59;5049126;27;20154;-77
2022/05/22 07:53:50;;;;;;;2.80;1.80;;;;;;;22.10;45.10;94771.97;5033622;27;20607;-75
2022/05/22 07:56:36;;;;;;;2.53;1.50;;;;;;;22.36;45.40;94763.38;5038395;27;20523;-75
2022/05/22 07:59:32;;;;;;;2.30;1.45;;;;;;;22.64;43.24;94764.72;5035133;27;20162;-77
2022/05/22 08:02:15;;;;;;;7.63;1.38;;;;;;;22.51;41.92;94776.22;5130956;27;20493;-75
2022/05/22 08:04:46;;;;;;;3.33;1.50;;;;;;;22.45;43.02;94774.78;5021346;27;20037;-70
2022/05/22 08:07:41;;;;;;;2.58;1.20;;;;;;;22.40;42.94;94756.34;5038020;27;20052;-71
2022/05/22 08:10:21;;;;;;;3.72;1.50;;;;;;;22.47;42.89;94773.41;5038126;27;20053;-67
2022/05/22 08:12:52;;;;;;;2.42;1.30;;;;;;;22.40;41.36;94766.97;5041502;27;20128;-66
2022/05/22 08:15:29;;;;;;;2.33;1.40;;;;;;;22.41;41.48;94753.41;5039443;27;20511;-68
2022/05/22 08:18:07;;;;;;;2.30;1.30;;;;;;;22.28;41.11;94749.78;5050800;27;20168;-69
2022/05/22 08:20:37;;;;;;;3.08;2.20;;;;;;;22.14;41.50;94757.00;5068202;27;20305;-68
2022/05/22 08:23:11;;;;;;;10.35;1.48;;;;;;;22.17;42.08;94742.38;5125175;27;20041;-68
2022/05/22 08:25:43;;;;;;;2.30;1.90;;;;;;;22.09;43.24;94752.66;5041679;27;20055;-68
2022/05/22 08:28:11;;;;;;;2.28;1.40;;;;;;;21.99;42.45;94733.56;5053208;27;20041;-71
2022/05/22 08:30:40;;;;;;;3.50;1.50;;;;;;;22.03;42.75;94734.50;5068094;27;20061;-71
2022/05/22 08:33:08;;;;;;;2.30;1.50;;;;;;;21.91;43.11;94730.56;5032934;27;20049;-71
2022/05/22 08:35:37;;;;;;;3.20;1.25;;;;;;;22.08;42.72;94723.78;5062804;27;20539;-71
2022/05/22 08:38:05;;;;;;;12.30;1.92;;;;;;;22.23;42.35;94726.00;5045010;27;20117;-71
2022/05/22 08:40:42;;;;;;;4.03;1.50;;;;;;;22.45;43.02;94725.16;5037957;27;20048;-70
2022/05/22 08:43:35;;;;;;;5.13;1.60;;;;;;;22.60;41.46;94725.81;5036101;27;20037;-70
2022/05/22 08:46:07;;;;;;;3.20;1.23;;;;;;;22.77;40.77;94722.41;5037560;27;20088;-71
2022/05/22 08:48:56;;;;;;;2.97;2.08;;;;;;;22.83;40.80;94721.16;5041851;27;20129;-71
2022/05/22 08:51:45;;;;;;;4.85;2.08;;;;;;;23.14;40.04;94721.06;5032782;27;20072;-71
2022/05/22 08:54:34;;;;;;;2.60;1.00;;;;;;;23.42;37.89;94726.03;5037501;27;20454;-72
2022/05/22 08:59:56;;;;;;;;;;;;;;;24.23;38.16;94719.88;5038242;27;20091;-68
2022/05/22 09:02:55;;;;;;;4.82;1.65;;;;;;;24.39;36.82;94720.13;5040343;27;19947;-66
2022/05/22 09:05:24;;;;;;;7.22;1.65;;;;;;;24.39;36.69;94719.34;5035411;27;20655;-66
2022/05/22 09:08:00;;;;;;;1.95;1.30;;;;;;;24.34;38.01;94716.84;5045194;27;20111;-68
2022/05/22 09:11:04;;;;;;;2.83;1.25;;;;;;;24.45;37.15;94718.03;5054309;27;20454;-68
2022/05/22 09:13:40;;;;;;;5.35;1.70;;;;;;;24.60;37.07;94722.84;5069227;27;20035;-69
2022/05/22 09:16:13;;;;;;;2.45;1.90;;;;;;;24.49;38.67;94718.97;5033180;27;20089;-68
2022/05/22 09:18:50;;;;;;;2.65;1.83;;;;;;;24.30;39.82;94718.59;5031989;27;20152;-68
2022/05/22 09:21:35;;;;;;;6.03;1.90;;;;;;;24.01;41.17;94714.81;5068207;27;20840;-71
2022/05/22 09:24:17;;;;;;;1.63;1.10;;;;;;;23.79;40.61;94724.56;5039869;27;20045;-70
2022/05/22 09:26:59;;;;;;;4.30;1.58;;;;;;;23.50;43.09;94716.47;5067509;27;20453;-70
2022/05/22 09:29:53;;;;;;;2.00;1.33;;;;;;;23.58;43.55;94718.34;5059038;27;20056;-70
2022/05/22 09:32:47;;;;;;;6.45;2.15;;;;;;;23.85;43.31;94728.63;5071841;27;20129;-71
2022/05/22 09:35:20;;;;;;;3.20;1.73;;;;;;;23.59;42.66;94710.06;5033220;27;20483;-69
2022/05/22 09:38:02;;;;;;;2.88;1.42;;;;;;;23.78;42.79;94712.34;5075553;27;20058;-70
2022/05/22 09:40:45;;;;;;;1.90;1.23;;;;;;;24.14;42.44;94711.16;5039805;27;20526;-70
2022/05/22 09:43:57;;;;;;;6.78;1.98;;;;;;;24.06;40.76;94712.00;5059502;27;20037;-71
2022/05/22 09:46:36;;;;;;;4.60;2.28;;;;;;;23.54;42.80;94717.44;5072233;27;20257;-69
2022/05/22 09:49:10;;;;;;;6.18;1.95;;;;;;;23.47;42.75;94713.34;5061043;27;20043;-70
2022/05/22 09:51:42;;;;;;;;;;;;;;;23.15;44.35;94711.22;5061878;27;20052;-70
2022/05/22 09:54:27;;;;;;;5.07;1.77;;;;;;;22.94;43.95;94711.81;5052747;27;20343;-70
2022/05/22 09:57:45;;;;;;;4.57;1.42;;;;;;;22.94;43.29;94690.56;5057345;27;20531;-69
2022/05/22 10:00:21;;;;;;;2.47;1.75;;;;;;;23.07;43.80;94694.97;5068535;27;20033;-70
2022/05/22 10:03:11;;;;;;;3.15;1.08;;;;;;;23.24;44.11;94688.06;5034123;27;20523;-70
2022/05/22 10:06:04;;;;;;;2.03;1.60;;;;;;;23.34;43.83;94694.94;5038846;27;20415;-71
2022/05/22 10:08:59;;;;;;;3.67;2.53;;;;;;;23.70;41.95;94678.59;5076491;27;20061;-72
2022/05/22 10:11:54;;;;;;;2.10;1.13;;;;;;;23.67;41.19;94673.91;5055538;27;20044;-70
2022/05/22 10:14:44;;;;;;;3.63;1.92;;;;;;;23.85;40.60;94672.78;5062506;27;20117;-69
2022/05/22 10:17:29;;;;;;;1.45;1.15;;;;;;;23.72;40.65;94671.09;5071849;27;20041;-70
2022/05/22 10:20:08;;;;;;;1.63;1.38;;;;;;;23.89;39.87;94669.50;5038997;27;20049;-70
2022/05/22 10:22:38;;;;;;;6.03;1.20;;;;;;;24.18;39.61;94674.84;5063517;27;20507;-69
2022/05/22 10:25:09;;;;;;;3.20;1.17;;;;;;;24.07;40.04;94662.97;5076429;27;20089;-70
2022/05/22 10:27:39;;;;;;;2.22;1.15;;;;;;;23.89;39.89;94664.16;5081142;27;20094;-69
2022/05/22 10:30:13;;;;;;;1.90;1.17;;;;;;;23.79;40.38;94660.75;5083228;27;20043;-70
2022/05/22 10:32:45;;;;;;;4.35;1.55;;;;;;;23.73;40.84;94662.00;5075410;27;20538;-70
2022/05/22 10:35:24;;;;;;;1.83;1.13;;;;;;;23.77;41.93;94662.94;5061343;27;20531;-69
2022/05/22 10:38:03;;;;;;;3.45;1.58;;;;;;;23.99;41.35;94648.63;5049968;27;20049;-70
2022/05/22 10:43:15;;;;;;;3.15;1.20;;;;;;;23.90;41.26;94652.44;5042649;27;20040;-70
2022/05/22 10:45:42;;;;;;;3.00;1.88;;;;;;;23.69;41.67;94650.44;5043507;27;20065;-69
2022/05/22 10:48:17;;;;;;;2.03;1.35;;;;;;;23.72;41.51;94655.13;5048242;27;20047;-69
2022/05/22 10:50:58;;;;;;;2.22;1.40;;;;;;;23.87;40.13;94642.44;5050255;27;20045;-70
2022/05/22 10:53:50;;;;;;;3.42;1.67;;;;;;;24.15;40.39;94651.53;5071191;27;20040;-70
2022/05/22 10:56:21;;;;;;;1.75;1.20;;;;;;;24.08;40.07;94640.63;5067262;27;20523;-70
2022/05/22 10:59:07;;;;;;;1.48;1.17;;;;;;;24.10;40.72;94638.41;5070471;27;20056;-69
2022/05/22 11:01:39;;;;;;;2.10;1.30;;;;;;;24.00;41.24;94633.44;5045169;27;20041;-68
2022/05/22 11:04:07;;;;;;;3.03;1.23;;;;;;;23.84;40.75;94636.66;5045415;27;20037;-68
2022/05/22 11:07:00;;;;;;;1.77;1.33;;;;;;;23.99;40.93;94637.22;5052163;27;20049;-69
2022/05/22 11:09:34;;;;;;;2.35;1.33;;;;;;;23.95;41.37;94620.31;5045540;27;20053;-69
2022/05/22 11:12:05;;;;;;;;;;;;;;;24.15;42.31;94643.56;5053850;27;20045;-69
2022/05/22 11:14:33;;;;;;;2.17;1.65;;;;;;;24.59;41.93;94628.09;5060515;27;19935;-70
2022/05/22 11:17:11;;;;;;;11.95;1.95;;;;;;;24.93;42.48;94625.50;5060894;27;20140;-68
2022/05/22 11:19:42;;;;;;;2.30;1.75;;;;;;;25.27;39.50;94629.75;5051227;27;20131;-72
2022/05/22 11:22:39;;;;;;;4.90;1.40;;;;;;;25.55;39.42;94611.25;5040446;27;20036;-70
2022/05/22 11:25:31;;;;;;;1.70;1.30;;;;;;;25.76;38.80;94608.47;5039477;27;20053;-70
2022/05/22 11:28:31;;;;;;;2.95;1.15;;;;;;;25.26;37.56;94633.50;5040621;27;20037;-71
2022/05/22 11:31:23;;;;;;;3.28;1.30;;;;;;;24.75;39.45;94598.22;5042138;27;20051;-70
2022/05/22 11:34:02;;;;;;;14.02;1.55;;;;;;;24.71;38.14;94613.31;5038988;27;20044;-69
2022/05/22 11:36:45;;;;;;;3.55;1.42;;;;;;;24.78;39.50;94586.94;5040200;27;20052;-69
2022/05/22 11:39:17;;;;;;;4.70;1.65;;;;;;;24.75;39.04;94604.31;5039707;27;20045;-69
2022/05/22 11:41:52;;;;;;;4.38;1.73;;;;;;;24.59;38.54;94601.47;5041272;27;20435;-70
2022/05/22 11:45:16;;;;;;;2.05;1.02;;;;;;;24.42;38.38;94574.97;5039629;27;20041;-68
2022/05/22 11:48:09;;;;;;;6.43;2.17;;;;;;;24.07;38.30;94580.53;5055492;28;20056;-72
2022/05/22 11:50:48;;;;;;;11.23;3.65;;;;;;;24.11;39.72;94576.13;5010419;28;20056;-74
2022/05/22 11:54:01;;;;;;;3.17;1.08;;;;;;;24.58;38.58;94591.94;5040415;27;20057;-75
2022/05/22 11:56:27;;;;;;;2.55;1.42;;;;;;;25.36;37.54;94579.78;5034742;27;20076;-73
2022/05/22 11:59:15;;;;;;;1.55;1.17;;;;;;;25.53;37.47;94578.81;5056617;27;20043;-74
2022/05/22 12:01:58;;;;;;;2.65;1.20;;;;;;;25.68;37.26;94585.38;5046748;27;20045;-74
2022/05/22 12:04:41;;;;;;;3.72;1.60;;;;;;;25.43;37.77;94583.81;5035261;27;20053;-74
2022/05/22 12:07:33;;;;;;;5.70;1.85;;;;;;;25.29;38.19;94590.22;5036023;27;20044;-73
2022/05/22 12:10:16;;;;;;;3.20;0.98;;;;;;;25.18;38.29;94589.06;5140807;27;20053;-74
2022/05/22 12:13:09;;;;;;;1.93;1.53;;;;;;;24.70;39.27;94575.22;5049520;27;20047;-73
2022/05/22 12:15:45;;;;;;;2.05;1.15;;;;;;;24.33;39.89;94582.25;5048382;27;20131;-72
2022/05/22 12:18:39;;;;;;;2.10;1.15;;;;;;;23.99;40.75;94579.47;5059277;27;20102;-72
2022/05/22 12:21:16;;;;;;;2.40;1.23;;;;;;;23.96;40.26;94569.47;5112074;27;20620;-73
2022/05/22 12:24:15;;;;;;;1.92;1.50;;;;;;;23.93;40.96;94574.66;5038532;27;20041;-72
2022/05/22 12:26:43;;;;;;;2.70;2.13;;;;;;;24.07;42.33;94585.84;5060978;27;20049;-73
2022/05/22 12:29:27;;;;;;;3.53;1.65;;;;;;;24.31;40.68;94584.44;5069953;27;20052;-74
2022/05/22 12:31:56;;;;;;;4.30;2.22;;;;;;;24.42;42.30;94580.31;5030180;27;20053;-72
2022/05/22 12:34:37;;;;;;;1.92;1.55;;;;;;;24.73;40.61;94557.84;5047185;27;20534;-72